createdAt,value
2023-04-29T00:01:25.362Z,95623.53
2023-04-29T00:03:29.624Z,95606.81
2023-04-29T00:05:32.650Z,95497.50
2023-04-29T00:07:36.467Z,95617.59
2023-04-29T00:09:39.243Z,95495.06
2023-04-29T00:11:43.445Z,95580.41
2023-04-29T00:13:46.213Z,95614.31
2023-04-29T00:15:49.202Z,95087.03
2023-04-29T00:17:51.960Z,95612.72
2023-04-29T00:19:54.948Z,95608.16
2023-04-29T00:21:57.857Z,95348.38
2023-04-29T00:24:00.945Z,95615.16
2023-04-29T00:26:04.115Z,95614.34
2023-04-29T00:28:08.491Z,95558.88
2023-04-29T00:30:11.996Z,95540.03
2023-04-29T00:32:14.780Z,95601.97
2023-04-29T00:34:17.849Z,95610.03
2023-04-29T00:36:20.738Z,95594.16
2023-04-29T00:38:23.686Z,95608.97
2023-04-29T00:40:26.489Z,95605.97
2023-04-29T00:42:30.251Z,95429.38
2023-04-29T00:44:34.374Z,95614.88
2023-04-29T00:46:37.269Z,95619.72
2023-04-29T00:48:41.374Z,95609.47
2023-04-29T00:50:44.560Z,95619.19
2023-04-29T00:52:48.794Z,95607.59
2023-04-29T00:54:53.024Z,95624.31
2023-04-29T00:56:57.157Z,95618.13
2023-04-29T00:58:59.930Z,95617.59
2023-04-29T01:01:04.713Z,95621.63
2023-04-29T01:03:07.809Z,95618.13
2023-04-29T01:05:10.699Z,95612.19
2023-04-29T01:07:18.188Z,95609.78
2023-04-29T01:09:31.935Z,95611.66
2023-04-29T01:11:40.916Z,95611.66
2023-04-29T01:13:47.481Z,95608.97
2023-04-29T01:15:58.874Z,95612.19
2023-04-29T01:18:12.027Z,95602.22
2023-04-29T01:20:15.100Z,95588.50
2023-04-29T01:22:20.062Z,95616.81
2023-04-29T01:24:24.472Z,95606.28
2023-04-29T01:26:31.747Z,95607.63
2023-04-29T01:28:52.100Z,95601.97
2023-04-29T01:31:01.240Z,95505.03
2023-04-29T01:33:09.909Z,95519.31
2023-04-29T01:35:24.926Z,95604.13
2023-04-29T01:37:40.249Z,95536.00
2023-04-29T01:39:53.991Z,95601.41
2023-04-29T01:42:03.117Z,95603.31
2023-04-29T01:44:09.940Z,95577.19
2023-04-29T01:46:18.445Z,95628.38
2023-04-29T01:48:22.035Z,95594.97
2023-04-29T01:50:24.880Z,95604.69
2023-04-29T01:52:28.746Z,95598.75
2023-04-29T01:54:32.725Z,95607.09
2023-04-29T01:56:37.015Z,95593.63
2023-04-29T01:58:51.427Z,95604.41
2023-04-29T02:01:13.128Z,95611.16
2023-04-29T02:03:16.572Z,95557.28
2023-04-29T02:05:23.211Z,95600.63
2023-04-29T02:07:31.376Z,95600.91
2023-04-29T02:09:34.299Z,95601.19
2023-04-29T02:11:45.101Z,95607.09
2023-04-29T02:13:49.933Z,95600.38
2023-04-29T02:15:53.619Z,95087.56
2023-04-29T02:17:56.503Z,95603.06
2023-04-29T02:19:59.370Z,95611.97
2023-04-29T02:22:02.164Z,95603.06
2023-04-29T02:24:05.272Z,95601.19
2023-04-29T02:26:09.329Z,95558.63
2023-04-29T02:28:13.598Z,95605.75
2023-04-29T02:30:17.365Z,95582.31
2023-04-29T02:32:21.118Z,95562.38
2023-04-29T02:34:24.094Z,95455.47
2023-04-29T02:36:26.859Z,95603.88
2023-04-29T02:38:29.665Z,95513.88
2023-04-29T02:40:32.908Z,95598.75
2023-04-29T02:42:35.746Z,95477.25
2023-04-29T02:44:40.152Z,95550.00
2023-04-29T02:46:45.808Z,95599.84
2023-04-29T02:48:48.776Z,95597.69
2023-04-29T02:50:52.798Z,95591.75
2023-04-29T02:52:55.631Z,95564.53
2023-04-29T02:54:58.394Z,95606.31
2023-04-29T02:57:01.475Z,95577.75
2023-04-29T02:59:04.295Z,95569.66
2023-04-29T03:01:08.664Z,95630.53
2023-04-29T03:03:11.753Z,95609.78
2023-04-29T03:05:15.482Z,95609.25
2023-04-29T03:07:18.564Z,95582.56
2023-04-29T03:09:22.121Z,95605.22
2023-04-29T03:11:25.448Z,95612.75
2023-04-29T03:13:28.262Z,95608.44
2023-04-29T03:15:31.191Z,95610.06
2023-04-29T03:17:35.515Z,95613.81
2023-04-29T03:19:38.265Z,95608.44
2023-04-29T03:21:41.084Z,95610.34
2023-04-29T03:23:44.817Z,95606.81
2023-04-29T03:25:53.255Z,95599.81
2023-04-29T03:27:56.063Z,95608.97
2023-04-29T03:29:59.207Z,95607.88
2023-04-29T03:32:02.730Z,95604.66
2023-04-29T03:34:07.312Z,95597.66
2023-04-29T03:36:14.389Z,95498.25
2023-04-29T03:38:26.962Z,95590.13
2023-04-29T03:40:31.023Z,95589.03
2023-04-29T03:42:34.768Z,95589.84
2023-04-29T03:44:37.704Z,95586.34
2023-04-29T03:46:40.535Z,95588.16
2023-04-29T03:48:43.407Z,95581.44
2023-04-29T03:50:47.807Z,95519.47
2023-04-29T03:52:50.700Z,95586.56
2023-04-29T03:54:55.049Z,95589.50
2023-04-29T03:56:58.159Z,95600.53
2023-04-29T03:59:01.012Z,95605.09
2023-04-29T04:01:03.940Z,95597.28
2023-04-29T04:03:16.128Z,95607.78
2023-04-29T04:05:21.027Z,95602.94
2023-04-29T04:07:30.378Z,95605.88
2023-04-29T04:10:09.145Z,95453.63
2023-04-29T04:12:12.237Z,95523.69
2023-04-29T04:14:15.184Z,95577.03
2023-04-29T04:16:18.092Z,95609.91
2023-04-29T04:18:21.011Z,95593.13
2023-04-29T04:20:23.889Z,95606.66
2023-04-29T04:22:26.807Z,95612.56
2023-04-29T04:24:47.417Z,95614.16
2023-04-29T04:26:50.255Z,95593.66
2023-04-29T04:29:10.215Z,95625.38
2023-04-29T04:31:22.553Z,95616.22
2023-04-29T04:33:27.404Z,95611.38
2023-04-29T04:35:30.371Z,95559.00
2023-04-29T04:37:33.163Z,95624.81
2023-04-29T04:39:37.205Z,95629.97
2023-04-29T04:41:41.371Z,95633.66
2023-04-29T04:43:45.106Z,95635.00
2023-04-29T04:45:57.377Z,95633.97
2023-04-29T04:48:01.364Z,95627.47
2023-04-29T04:50:08.984Z,95637.72
2023-04-29T04:52:13.088Z,95649.56
2023-04-29T04:54:15.876Z,95641.25
2023-04-29T04:56:18.806Z,95651.75
2023-04-29T04:58:23.765Z,95648.84
2023-04-29T05:00:26.607Z,95440.13
2023-04-29T05:02:29.522Z,95652.63
2023-04-29T05:04:32.471Z,95613.19
2023-04-29T05:06:35.329Z,95666.84
2023-04-29T05:08:38.192Z,95661.47
2023-04-29T05:10:44.600Z,95647.25
2023-04-29T05:12:48.427Z,95663.13
2023-04-29T05:14:55.375Z,95662.56
2023-04-29T05:17:00.094Z,95562.75
2023-04-29T05:19:03.472Z,95673.31
2023-04-29T05:21:10.768Z,95667.44
2023-04-29T05:23:13.564Z,95672.22
2023-04-29T05:25:18.581Z,95673.63
2023-04-29T05:27:21.343Z,95672.53
2023-04-29T05:29:24.215Z,95681.44
2023-04-29T05:31:33.750Z,95686.81
2023-04-29T05:33:39.533Z,95690.88
2023-04-29T05:35:42.282Z,95687.41
2023-04-29T05:37:45.789Z,95692.50
2023-04-29T05:40:00.239Z,95697.59
2023-04-29T05:42:03.333Z,95703.56
2023-04-29T05:44:16.351Z,95697.66
2023-04-29T05:46:20.543Z,95704.91
2023-04-29T05:48:26.631Z,95722.13
2023-04-29T05:50:29.426Z,95710.59
2023-04-29T05:52:32.225Z,95679.81
2023-04-29T05:54:35.327Z,95718.13
2023-04-29T05:56:38.220Z,95727.28
2023-04-29T05:58:41.084Z,95731.63
2023-04-29T06:00:44.188Z,95590.50
2023-04-29T06:02:58.854Z,95737.03
2023-04-29T06:05:05.434Z,95720.38
2023-04-29T06:07:29.367Z,95730.09
2023-04-29T06:09:36.514Z,95743.88
2023-04-29T06:11:39.265Z,95744.16
2023-04-29T06:13:42.063Z,95735.53
2023-04-29T06:15:45.456Z,95736.88
2023-04-29T06:17:49.848Z,95740.72
2023-04-29T06:19:52.839Z,95751.47
2023-04-29T06:21:58.653Z,95760.69
2023-04-29T06:24:01.518Z,95760.09
2023-04-29T06:26:04.311Z,95762.53
2023-04-29T06:28:08.483Z,95759.31
2023-04-29T06:30:13.273Z,95696.75
2023-04-29T06:32:16.262Z,95672.97
2023-04-29T06:34:21.804Z,95773.91
2023-04-29T06:36:43.053Z,95776.59
2023-04-29T06:39:16.692Z,95780.94
2023-04-29T06:41:45.720Z,95667.91
2023-04-29T06:44:20.540Z,95776.38
2023-04-29T06:46:32.000Z,95742.13
2023-04-29T06:48:45.900Z,95783.66
2023-04-29T06:50:52.233Z,95772.63
2023-04-29T06:52:54.978Z,95777.19
2023-04-29T06:54:59.145Z,95632.66
2023-04-29T06:57:02.202Z,95783.41
2023-04-29T06:59:05.469Z,95791.75
2023-04-29T07:01:11.007Z,95795.00
2023-04-29T07:03:14.573Z,95781.25
2023-04-29T07:05:17.486Z,95787.19
2023-04-29T07:07:20.263Z,95783.41
2023-04-29T07:09:23.660Z,95598.91
2023-04-29T07:11:28.359Z,95786.91
2023-04-29T07:13:31.626Z,95796.09
2023-04-29T07:15:35.980Z,95800.44
2023-04-29T07:17:39.214Z,95799.63
2023-04-29T07:19:41.998Z,95796.13
2023-04-29T07:21:44.769Z,95802.31
2023-04-29T07:23:48.002Z,95800.44
2023-04-29T07:25:52.314Z,95655.34
2023-04-29T07:27:58.519Z,95816.31
2023-04-29T07:30:02.138Z,95820.09
2023-04-29T07:32:05.824Z,95815.53
2023-04-29T07:34:11.518Z,95818.44
2023-04-29T07:36:14.799Z,95817.94
2023-04-29T07:38:17.602Z,95810.63
2023-04-29T07:40:20.708Z,95814.38
2023-04-29T07:42:24.020Z,95821.34
2023-04-29T07:44:29.508Z,95819.69
2023-04-29T07:46:33.178Z,95825.59
2023-04-29T07:48:39.207Z,95709.94
2023-04-29T07:50:42.628Z,95826.16
2023-04-29T07:52:45.762Z,95824.38
2023-04-29T07:54:48.482Z,95832.06
2023-04-29T07:56:51.526Z,95761.75
2023-04-29T07:58:56.196Z,95822.84
2023-04-29T08:01:06.671Z,95826.41
2023-04-29T08:03:09.487Z,95824.88
2023-04-29T08:05:12.682Z,95764.69
2023-04-29T08:07:15.649Z,95829.00
2023-04-29T08:09:18.434Z,95833.66
2023-04-29T08:11:24.458Z,95830.88
2023-04-29T08:13:27.220Z,95830.06
2023-04-29T08:15:30.020Z,95835.50
2023-04-29T08:17:34.189Z,95831.06
2023-04-29T08:19:37.004Z,95836.84
2023-04-29T08:21:39.730Z,95832.06
2023-04-29T08:23:42.485Z,95844.06
2023-04-29T08:25:45.270Z,95839.88
2023-04-29T08:27:48.034Z,95835.88
2023-04-29T08:29:51.052Z,95847.94
2023-04-29T08:31:54.848Z,95838.56
2023-04-29T08:33:59.673Z,95833.28
2023-04-29T08:36:03.675Z,95843.00
2023-04-29T08:38:07.271Z,95840.53
2023-04-29T08:40:10.896Z,95838.78
2023-04-29T08:42:13.756Z,95778.81
2023-04-29T08:44:17.345Z,95843.25
2023-04-29T08:46:21.207Z,95846.84
2023-04-29T08:48:24.218Z,95845.81
2023-04-29T08:50:29.333Z,95840.66
2023-04-29T08:52:32.513Z,95849.16
2023-04-29T08:54:36.196Z,95847.28
2023-04-29T08:56:40.543Z,95844.31
2023-04-29T08:58:43.935Z,95845.00
2023-04-29T09:00:47.333Z,95852.00
2023-04-29T09:02:52.418Z,95837.31
2023-04-29T09:05:05.488Z,95838.88
2023-04-29T09:07:12.494Z,95836.09
2023-04-29T09:09:15.686Z,95828.72
2023-04-29T09:11:19.282Z,95813.16
2023-04-29T09:13:26.494Z,95833.41
2023-04-29T09:15:29.235Z,95835.38
2023-04-29T09:17:42.643Z,95826.66
2023-04-29T09:19:45.852Z,95827.09
2023-04-29T09:21:56.288Z,95833.69
2023-04-29T09:24:02.321Z,95829.38
2023-04-29T09:26:05.145Z,95836.00
2023-04-29T09:28:16.668Z,95786.38
2023-04-29T09:30:19.668Z,95834.59
2023-04-29T09:32:22.425Z,95830.91
2023-04-29T09:34:32.830Z,95833.88
2023-04-29T09:36:44.962Z,95837.94
2023-04-29T09:38:55.891Z,95837.09
2023-04-29T09:41:01.317Z,95836.88
2023-04-29T09:43:12.634Z,95849.63
2023-04-29T09:45:33.599Z,95848.72
2023-04-29T09:47:36.512Z,95842.66
2023-04-29T09:49:41.178Z,95845.13
2023-04-29T09:51:53.510Z,95796.63
2023-04-29T09:53:56.233Z,95841.47
2023-04-29T09:56:02.030Z,95833.25
2023-04-29T09:58:04.901Z,95724.56
2023-04-29T10:00:09.214Z,95831.72
2023-04-29T10:02:17.768Z,95840.16
2023-04-29T10:04:22.418Z,95835.47
2023-04-29T10:06:26.706Z,95837.88
2023-04-29T10:08:30.933Z,95805.06
2023-04-29T10:10:33.680Z,95839.63
2023-04-29T10:12:38.638Z,95852.03
2023-04-29T10:14:48.862Z,95845.06
2023-04-29T10:17:00.146Z,95842.09
2023-04-29T10:19:08.697Z,95851.94
2023-04-29T10:21:14.792Z,95852.88
2023-04-29T10:23:20.061Z,95844.88
2023-04-29T10:25:24.593Z,95840.66
2023-04-29T10:27:28.964Z,95846.00
2023-04-29T10:29:35.686Z,95782.41
2023-04-29T10:31:40.429Z,95854.59
2023-04-29T10:33:45.893Z,95838.16
2023-04-29T10:35:50.920Z,95844.19
2023-04-29T10:37:55.251Z,95836.81
2023-04-29T10:40:09.452Z,95813.28
2023-04-29T10:42:22.103Z,95835.19
2023-04-29T10:44:25.173Z,95840.50
2023-04-29T10:46:29.553Z,95793.59
2023-04-29T10:48:33.634Z,95831.16
2023-04-29T10:50:42.338Z,95832.13
2023-04-29T10:52:55.934Z,95789.03
2023-04-29T10:55:04.550Z,95846.22
2023-04-29T10:57:07.300Z,95627.19
2023-04-29T10:59:14.544Z,95827.03
2023-04-29T11:01:18.759Z,95796.50
2023-04-29T11:03:48.821Z,95833.84
2023-04-29T11:06:09.919Z,95823.06
2023-04-29T11:08:13.328Z,95829.19
2023-04-29T11:10:16.249Z,95831.66
2023-04-29T11:12:21.790Z,95824.16
2023-04-29T11:14:27.556Z,95817.41
2023-04-29T11:16:30.430Z,95828.00
2023-04-29T11:18:35.451Z,95779.34
2023-04-29T11:21:11.530Z,95807.72
2023-04-29T11:23:14.345Z,95825.97
2023-04-29T11:25:17.701Z,95826.72
2023-04-29T11:27:25.102Z,95815.09
2023-04-29T11:29:28.874Z,95813.69
2023-04-29T11:31:32.219Z,95820.56
2023-04-29T11:33:36.470Z,95825.97
2023-04-29T11:35:41.010Z,95823.00
2023-04-29T11:37:45.858Z,95830.59
2023-04-29T11:39:49.190Z,95826.75
2023-04-29T11:41:52.761Z,95812.47
2023-04-29T11:43:59.093Z,95830.06
2023-04-29T11:46:01.957Z,95821.72
2023-04-29T11:48:05.754Z,95829.63
2023-04-29T11:50:11.302Z,95833.38
2023-04-29T11:52:14.601Z,95834.47
2023-04-29T11:54:17.435Z,95826.03
2023-04-29T11:56:24.238Z,95836.56
2023-04-29T11:58:27.002Z,95832.03
2023-04-29T12:00:31.802Z,95824.81
2023-04-29T12:02:35.713Z,95842.13
2023-04-29T12:04:46.741Z,95838.03
2023-04-29T12:06:54.036Z,95832.81
2023-04-29T12:08:56.811Z,95829.28
2023-04-29T12:11:00.923Z,95828.22
2023-04-29T12:13:04.385Z,95840.25
2023-04-29T12:15:09.867Z,95830.81
2023-04-29T12:17:13.205Z,95828.47
2023-04-29T12:19:16.450Z,95823.19
2023-04-29T12:21:19.242Z,95760.59
2023-04-29T12:23:26.702Z,95820.03
2023-04-29T12:25:30.215Z,95830.97
2023-04-29T12:27:33.874Z,95818.44
2023-04-29T12:29:37.276Z,95826.84
2023-04-29T12:31:40.136Z,95829.28
2023-04-29T12:33:44.756Z,95825.81
2023-04-29T12:35:47.502Z,95824.94
2023-04-29T12:37:51.307Z,95819.88
2023-04-29T12:39:56.536Z,95658.41
2023-04-29T12:42:00.034Z,95822.38
2023-04-29T12:44:04.216Z,95814.38
2023-04-29T12:46:07.918Z,95826.41
2023-04-29T12:48:22.125Z,95837.16
2023-04-29T12:50:33.813Z,95834.25
2023-04-29T12:52:37.035Z,95822.88
2023-04-29T12:54:41.769Z,95804.47
2023-04-29T12:56:48.432Z,95706.34
2023-04-29T12:58:51.588Z,95841.06
2023-04-29T13:00:54.354Z,95834.34
2023-04-29T13:02:58.069Z,95847.06
2023-04-29T13:05:01.586Z,95840.00
2023-04-29T13:07:05.933Z,95839.66
2023-04-29T13:09:17.054Z,95835.63
2023-04-29T13:11:21.263Z,95838.75
2023-04-29T13:13:25.487Z,95839.41
2023-04-29T13:15:28.525Z,95847.03
2023-04-29T13:17:31.399Z,95841.94
2023-04-29T13:19:49.795Z,95846.16
2023-04-29T13:21:54.274Z,95839.06
2023-04-29T13:23:57.075Z,95844.25
2023-04-29T13:25:59.867Z,95837.34
2023-04-29T13:28:02.742Z,95728.31
2023-04-29T13:30:08.833Z,95847.44
2023-04-29T13:32:11.677Z,95857.75
2023-04-29T13:34:14.606Z,95855.69
2023-04-29T13:36:17.556Z,95855.13
2023-04-29T13:38:20.317Z,95856.69
2023-04-29T13:40:27.393Z,95854.06
2023-04-29T13:42:32.637Z,95853.06
2023-04-29T13:44:51.610Z,95852.09
2023-04-29T13:46:57.519Z,95854.34
2023-04-29T13:51:48.088Z,95860.81
2023-04-29T13:53:50.040Z,95862.75
2023-04-29T13:56:41.735Z,95864.34
2023-04-29T13:58:56.021Z,95875.25
2023-04-29T14:01:05.837Z,95828.59
2023-04-29T14:03:03.456Z,95867.72
2023-04-29T14:05:07.160Z,95864.66
2023-04-29T14:07:09.932Z,95861.47
2023-04-29T14:09:12.761Z,95865.47
2023-04-29T14:11:16.213Z,95866.41
2023-04-29T14:13:19.002Z,95863.34
2023-04-29T14:15:21.796Z,95706.56
2023-04-29T14:17:24.566Z,95864.53
2023-04-29T14:19:28.705Z,95870.78
2023-04-29T14:21:33.182Z,95871.56
2023-04-29T14:23:36.124Z,95863.16
2023-04-29T14:25:38.873Z,95864.19
2023-04-29T14:27:41.826Z,95869.59
2023-04-29T14:29:44.708Z,95874.25
2023-04-29T14:31:47.659Z,95878.16
2023-04-29T14:33:51.327Z,95875.22
2023-04-29T14:35:55.673Z,95717.91
2023-04-29T14:37:58.407Z,95875.69
2023-04-29T14:40:01.175Z,95883.47
2023-04-29T14:42:04.377Z,95884.94
2023-04-29T14:44:07.246Z,95887.94
2023-04-29T14:46:10.291Z,95881.59
2023-04-29T14:48:13.175Z,95760.63
2023-04-29T14:50:16.233Z,95863.03
2023-04-29T14:52:20.470Z,95848.25
2023-04-29T14:54:24.577Z,95895.25
2023-04-29T14:56:27.832Z,95888.81
2023-04-29T14:58:30.906Z,95898.75
2023-04-29T15:00:33.635Z,95896.69
2023-04-29T15:02:36.482Z,95901.19
2023-04-29T15:04:43.109Z,95909.19
2023-04-29T15:06:45.936Z,95910.38
2023-04-29T15:08:50.083Z,95913.03
2023-04-29T15:10:52.993Z,95908.84
2023-04-29T15:12:55.945Z,95915.50
2023-04-29T15:14:59.066Z,95908.22
2023-04-29T15:17:01.986Z,95940.78
2023-04-29T15:19:05.156Z,95917.63
2023-04-29T15:21:07.920Z,95923.13
2023-04-29T15:23:11.119Z,95914.09
2023-04-29T15:25:15.685Z,95923.09
2023-04-29T15:27:18.466Z,95924.16
2023-04-29T15:29:21.458Z,95740.91
2023-04-29T15:31:25.505Z,95785.38
2023-04-29T15:33:28.950Z,95929.59
2023-04-29T15:35:31.739Z,95928.28
2023-04-29T15:37:34.592Z,95811.19
2023-04-29T15:39:37.311Z,95926.53
2023-04-29T15:41:41.578Z,95922.19
2023-04-29T15:43:44.390Z,95771.31
2023-04-29T15:45:47.178Z,95928.63
2023-04-29T15:47:50.045Z,95939.50
2023-04-29T15:49:53.139Z,95934.28
2023-04-29T15:51:56.598Z,95719.88
2023-04-29T15:53:59.501Z,95937.47
2023-04-29T15:56:02.678Z,95936.03
2023-04-29T15:58:06.847Z,95941.78
2023-04-29T16:00:11.248Z,95939.19
2023-04-29T16:02:15.278Z,95904.13
2023-04-29T16:04:18.457Z,95938.81
2023-04-29T16:06:21.288Z,95941.03
2023-04-29T16:08:24.111Z,95931.53
2023-04-29T16:10:26.993Z,95944.22
2023-04-29T16:12:29.760Z,95945.34
2023-04-29T16:14:33.902Z,95960.91
2023-04-29T16:16:36.740Z,95944.44
2023-04-29T16:18:39.658Z,95955.78
2023-04-29T16:20:42.790Z,95870.44
2023-04-29T16:22:45.638Z,95957.56
2023-04-29T16:24:49.867Z,95951.09
2023-04-29T16:26:52.844Z,95859.81
2023-04-29T16:28:55.802Z,95999.09
2023-04-29T16:31:00.120Z,95956.84
2023-04-29T16:33:03.055Z,95962.56
2023-04-29T16:35:06.305Z,95961.44
2023-04-29T16:37:12.481Z,95962.84
2023-04-29T16:39:15.530Z,95964.47
2023-04-29T16:41:18.538Z,95818.41
2023-04-29T16:43:21.292Z,95963.19
2023-04-29T16:45:25.170Z,95964.22
2023-04-29T16:47:29.360Z,95957.06
2023-04-29T16:49:32.781Z,95969.75
2023-04-29T16:51:35.736Z,95972.25
2023-04-29T16:53:38.565Z,95894.50
2023-04-29T16:55:41.417Z,95783.56
2023-04-29T16:57:44.318Z,95974.22
2023-04-29T16:59:47.160Z,95977.22
2023-04-29T17:01:50.188Z,95935.25
2023-04-29T17:03:54.744Z,95935.06
2023-04-29T17:05:57.681Z,95991.69
2023-04-29T17:08:00.690Z,95993.84
2023-04-29T17:10:03.771Z,95814.59
2023-04-29T17:12:07.927Z,95984.44
2023-04-29T17:14:10.754Z,95843.56
2023-04-29T17:16:14.279Z,95993.84
2023-04-29T17:18:17.272Z,96001.31
2023-04-29T17:20:21.672Z,95998.16
2023-04-29T17:22:24.625Z,95817.31
2023-04-29T17:24:30.036Z,95993.94
2023-04-29T17:26:33.325Z,96000.50
2023-04-29T17:28:41.736Z,96021.97
2023-04-29T17:30:44.590Z,95940.50
2023-04-29T17:32:49.717Z,96003.13
2023-04-29T17:34:54.823Z,95994.34
2023-04-29T17:36:58.946Z,96006.03
2023-04-29T17:39:01.851Z,95958.88
2023-04-29T17:41:06.529Z,96004.66
2023-04-29T17:43:09.241Z,96003.63
2023-04-29T17:45:13.274Z,96015.16
2023-04-29T17:47:17.527Z,96014.47
2023-04-29T17:49:20.360Z,96015.63
2023-04-29T17:51:24.082Z,95864.38
2023-04-29T17:53:28.587Z,96043.94
2023-04-29T17:55:31.408Z,96007.19
2023-04-29T17:57:34.105Z,96013.19
2023-04-29T17:59:36.825Z,95994.00
2023-04-29T18:01:39.988Z,96023.97
2023-04-29T18:03:43.153Z,96024.25
2023-04-29T18:05:46.414Z,96030.88
2023-04-29T18:07:49.201Z,96019.13
2023-04-29T18:09:53.533Z,96022.59
2023-04-29T18:11:56.578Z,96024.00
2023-04-29T18:13:59.607Z,96021.38
2023-04-29T18:16:02.680Z,96034.56
2023-04-29T18:18:05.443Z,96013.03
2023-04-29T18:20:09.264Z,95997.66
2023-04-29T18:22:12.098Z,95934.13
2023-04-29T18:24:15.721Z,96015.06
2023-04-29T18:26:19.856Z,96020.41
2023-04-29T18:28:25.151Z,96007.50
2023-04-29T18:30:28.358Z,96010.59
2023-04-29T18:32:31.147Z,96008.00
2023-04-29T18:34:34.101Z,96013.59
2023-04-29T18:36:36.855Z,95996.56
2023-04-29T18:38:39.774Z,96035.97
2023-04-29T18:40:42.520Z,96022.91
2023-04-29T18:42:46.657Z,95843.97
2023-04-29T18:44:51.197Z,96021.66
2023-04-29T18:46:54.002Z,95954.81
2023-04-29T18:48:56.873Z,95978.53
2023-04-29T18:51:00.363Z,96003.91
2023-04-29T18:53:03.090Z,96012.38
2023-04-29T18:55:06.843Z,96015.03
2023-04-29T18:57:09.839Z,96028.72
2023-04-29T18:59:15.859Z,95953.84
2023-04-29T19:01:18.565Z,96033.53
2023-04-29T19:03:21.805Z,96029.34
2023-04-29T19:05:24.794Z,96037.59
2023-04-29T19:07:27.641Z,95998.97
2023-04-29T19:09:31.669Z,95888.31
2023-04-29T19:11:34.641Z,96009.84
2023-04-29T19:13:37.481Z,96001.28
2023-04-29T19:15:41.642Z,96056.38
2023-04-29T19:17:45.084Z,96057.66
2023-04-29T19:19:47.907Z,96055.56
2023-04-29T19:21:50.814Z,96019.75
2023-04-29T19:23:53.689Z,96060.09
2023-04-29T19:25:56.499Z,96016.84
2023-04-29T19:27:59.289Z,95943.31
2023-04-29T19:30:02.075Z,95977.44
2023-04-29T19:32:06.270Z,96080.03
2023-04-29T19:34:09.116Z,96071.25
2023-04-29T19:36:14.268Z,96073.53
2023-04-29T19:38:17.167Z,96073.84
2023-04-29T19:40:20.028Z,95979.06
2023-04-29T19:42:22.838Z,95963.53
2023-04-29T19:44:25.671Z,96074.88
2023-04-29T19:46:28.597Z,96081.88
2023-04-29T19:48:32.836Z,96078.88
2023-04-29T19:50:35.627Z,96085.59
2023-04-29T19:52:38.639Z,96088.88
2023-04-29T19:54:42.532Z,96094.28
2023-04-29T19:56:45.390Z,96091.59
2023-04-29T19:58:48.682Z,96091.28
2023-04-29T20:00:52.908Z,96087.03
2023-04-29T20:02:56.528Z,96043.25
2023-04-29T20:05:01.092Z,96095.56
2023-04-29T20:07:03.918Z,96089.03
2023-04-29T20:09:09.063Z,96099.91
2023-04-29T20:11:13.257Z,96100.31
2023-04-29T20:13:16.256Z,96062.81
2023-04-29T20:15:19.423Z,96101.69
2023-04-29T20:17:22.500Z,96055.94
2023-04-29T20:19:25.795Z,96098.63
2023-04-29T20:21:31.129Z,96111.63
2023-04-29T20:23:34.359Z,96117.47
2023-04-29T20:25:38.351Z,95944.75
2023-04-29T20:27:42.068Z,95914.94
2023-04-29T20:29:46.027Z,96087.53
2023-04-29T20:31:50.563Z,96114.97
2023-04-29T20:33:55.175Z,96113.09
2023-04-29T20:36:05.601Z,96114.28
2023-04-29T20:38:11.149Z,96014.31
2023-04-29T20:40:14.800Z,96068.13
2023-04-29T20:42:18.696Z,96044.25
2023-04-29T20:44:22.739Z,96104.75
2023-04-29T20:46:26.358Z,96116.72
2023-04-29T20:48:30.178Z,96112.50
2023-04-29T20:50:34.127Z,96115.75
2023-04-29T20:52:41.709Z,96114.25
2023-04-29T20:54:47.174Z,96112.88
2023-04-29T20:56:50.827Z,96110.75
2023-04-29T20:58:54.197Z,96139.63
2023-04-29T21:00:57.757Z,96057.56
2023-04-29T21:03:01.396Z,96118.91
2023-04-29T21:05:05.693Z,96116.53
2023-04-29T21:07:10.212Z,96095.72
2023-04-29T21:09:13.693Z,96122.41
2023-04-29T21:11:18.080Z,96046.38
2023-04-29T21:13:21.314Z,96121.44
2023-04-29T21:15:27.000Z,96112.41
2023-04-29T21:17:30.549Z,95940.91
2023-04-29T21:19:36.268Z,96039.13
2023-04-29T21:21:39.751Z,96120.66
2023-04-29T21:23:43.370Z,95857.25
2023-04-29T21:25:49.331Z,96102.84
2023-04-29T21:27:53.980Z,95783.84
2023-04-29T21:29:58.312Z,96060.59
2023-04-29T21:32:05.323Z,96119.03
2023-04-29T21:34:08.744Z,95835.97
2023-04-29T21:36:12.163Z,96109.03
2023-04-29T21:38:16.474Z,96118.09
2023-04-29T21:40:20.639Z,96114.50
2023-04-29T21:42:26.286Z,95715.84
2023-04-29T21:44:30.953Z,95990.94
2023-04-29T21:46:35.249Z,96035.97
2023-04-29T21:48:38.102Z,96122.59
2023-04-29T21:50:42.321Z,96030.53
2023-04-29T21:52:45.949Z,96104.91
2023-04-29T21:54:49.426Z,96101.22
2023-04-29T21:56:52.646Z,96107.03
2023-04-29T21:58:56.242Z,95868.59
2023-04-29T22:01:03.500Z,95966.06
2023-04-29T22:03:09.045Z,96114.44
2023-04-29T22:05:11.932Z,95982.31
2023-04-29T22:07:14.740Z,96105.47
2023-04-29T22:09:17.571Z,96079.22
2023-04-29T22:11:21.462Z,95860.09
2023-04-29T22:13:24.272Z,96113.69
2023-04-29T22:15:29.276Z,96122.41
2023-04-29T22:17:33.837Z,96106.41
2023-04-29T22:19:36.610Z,96117.78
2023-04-29T22:21:40.810Z,96048.03
2023-04-29T22:23:43.631Z,95991.28
2023-04-29T22:25:46.672Z,95851.56
2023-04-29T22:27:49.594Z,95953.00
2023-04-29T22:29:52.528Z,96106.66
2023-04-29T22:31:56.142Z,96104.47
2023-04-29T22:34:00.414Z,96114.28
2023-04-29T22:36:03.601Z,96113.25
2023-04-29T22:38:06.481Z,96109.59
2023-04-29T22:40:10.368Z,96110.66
2023-04-29T22:42:13.194Z,96110.94
2023-04-29T22:44:16.403Z,96105.13
2023-04-29T22:46:19.183Z,96115.97
2023-04-29T22:48:22.832Z,96105.91
2023-04-29T22:50:27.764Z,96108.75
2023-04-29T22:52:32.719Z,96114.78
2023-04-29T22:54:35.682Z,96113.63
2023-04-29T22:56:38.509Z,95897.97
2023-04-29T22:58:41.360Z,96083.66
2023-04-29T23:00:44.997Z,96110.34
2023-04-29T23:02:47.796Z,96119.81
2023-04-29T23:04:50.750Z,95954.84
2023-04-29T23:06:55.030Z,96049.16
2023-04-29T23:08:57.850Z,96116.00
2023-04-29T23:11:00.674Z,96117.88
2023-04-29T23:13:03.756Z,96073.78
2023-04-29T23:15:07.455Z,96117.44
2023-04-29T23:17:10.727Z,96122.25
2023-04-29T23:19:13.538Z,96027.13
2023-04-29T23:21:16.382Z,96081.09
2023-04-29T23:23:20.666Z,96123.19
2023-04-29T23:25:23.518Z,96076.44
2023-04-29T23:27:26.419Z,96123.25
2023-04-29T23:29:29.203Z,96142.81
2023-04-29T23:31:32.044Z,96062.75
2023-04-29T23:33:34.950Z,96139.03
2023-04-29T23:35:37.727Z,96073.16
2023-04-29T23:37:40.545Z,96129.31
2023-04-29T23:39:44.720Z,96133.63
2023-04-29T23:41:47.642Z,96131.28
2023-04-29T23:43:50.457Z,96124.84
2023-04-29T23:45:53.334Z,96131.91
2023-04-29T23:47:56.583Z,96133.94
2023-04-29T23:49:59.542Z,96128.78
2023-04-29T23:52:02.391Z,95953.75
2023-04-29T23:54:05.425Z,96123.00
2023-04-29T23:56:09.695Z,96072.94
2023-04-29T23:58:12.502Z,96059.66
